sensor_id;sensor_type;location;lat;lon;timestamp;temperature;humidity
66373;SHT30;53168;51.146;17.120;2024-02-15T00:01:19;9.47;73.40
66373;SHT30;53168;51.146;17.120;2024-02-15T00:03:53;9.46;73.40
66373;SHT30;53168;51.146;17.120;2024-02-15T00:06:28;9.44;73.36
66373;SHT30;53168;51.146;17.120;2024-02-15T00:09:03;9.41;73.36
66373;SHT30;53168;51.146;17.120;2024-02-15T00:11:37;9.39;73.38
66373;SHT30;53168;51.146;17.120;2024-02-15T00:14:12;9.36;73.40
66373;SHT30;53168;51.146;17.120;2024-02-15T00:16:47;9.34;73.40
66373;SHT30;53168;51.146;17.120;2024-02-15T00:19:21;9.28;73.40
66373;SHT30;53168;51.146;17.120;2024-02-15T00:21:56;9.26;73.45
66373;SHT30;53168;51.146;17.120;2024-02-15T00:36:09;9.09;73.69
66373;SHT30;53168;51.146;17.120;2024-02-15T00:38:45;9.07;73.81
66373;SHT30;53168;51.146;17.120;2024-02-15T00:41:19;9.05;73.91
66373;SHT30;53168;51.146;17.120;2024-02-15T00:43:54;9.02;74.00
66373;SHT30;53168;51.146;17.120;2024-02-15T00:46:28;8.98;74.10
66373;SHT30;53168;51.146;17.120;2024-02-15T00:49:03;8.97;74.12
66373;SHT30;53168;51.146;17.120;2024-02-15T00:51:39;8.94;74.22
66373;SHT30;53168;51.146;17.120;2024-02-15T00:54:14;8.91;74.30
66373;SHT30;53168;51.146;17.120;2024-02-15T00:56:48;8.89;74.35
66373;SHT30;53168;51.146;17.120;2024-02-15T00:59:23;8.88;74.46
66373;SHT30;53168;51.146;17.120;2024-02-15T01:01:58;8.87;74.51
66373;SHT30;53168;51.146;17.120;2024-02-15T01:04:33;8.87;74.57
66373;SHT30;53168;51.146;17.120;2024-02-15T01:07:10;8.88;74.60
66373;SHT30;53168;51.146;17.120;2024-02-15T01:09:44;8.88;74.60
66373;SHT30;53168;51.146;17.120;2024-02-15T01:12:18;8.88;74.62
66373;SHT30;53168;51.146;17.120;2024-02-15T01:14:53;8.89;74.70
66373;SHT30;53168;51.146;17.120;2024-02-15T01:17:28;8.88;74.71
66373;SHT30;53168;51.146;17.120;2024-02-15T01:20:03;8.90;74.77
66373;SHT30;53168;51.146;17.120;2024-02-15T01:22:39;8.89;74.79
66373;SHT30;53168;51.146;17.120;2024-02-15T01:25:15;8.89;74.88
66373;SHT30;53168;51.146;17.120;2024-02-15T01:27:50;8.88;74.90
66373;SHT30;53168;51.146;17.120;2024-02-15T01:30:24;8.88;74.90
66373;SHT30;53168;51.146;17.120;2024-02-15T01:32:59;8.91;74.90
66373;SHT30;53168;51.146;17.120;2024-02-15T01:35:34;8.91;74.96
66373;SHT30;53168;51.146;17.120;2024-02-15T01:38:09;8.90;75.00
66373;SHT30;53168;51.146;17.120;2024-02-15T01:40:43;8.90;75.02
66373;SHT30;53168;51.146;17.120;2024-02-15T01:43:19;8.89;75.09
66373;SHT30;53168;51.146;17.120;2024-02-15T01:45:53;8.88;75.10
66373;SHT30;53168;51.146;17.120;2024-02-15T01:48:33;8.87;75.18
66373;SHT30;53168;51.146;17.120;2024-02-15T01:51:13;8.86;75.20
66373;SHT30;53168;51.146;17.120;2024-02-15T01:53:49;8.86;75.20
66373;SHT30;53168;51.146;17.120;2024-02-15T01:56:26;8.88;75.19
66373;SHT30;53168;51.146;17.120;2024-02-15T01:59:04;8.90;75.19
66373;SHT30;53168;51.146;17.120;2024-02-15T02:01:40;8.90;75.17
66373;SHT30;53168;51.146;17.120;2024-02-15T02:04:15;8.91;75.12
66373;SHT30;53168;51.146;17.120;2024-02-15T02:06:50;8.93;75.10
66373;SHT30;53168;51.146;17.120;2024-02-15T02:09:28;8.95;75.10
66373;SHT30;53168;51.146;17.120;2024-02-15T02:12:03;8.96;75.10
66373;SHT30;53168;51.146;17.120;2024-02-15T02:14:39;8.97;75.15
66373;SHT30;53168;51.146;17.120;2024-02-15T02:17:13;8.97;75.11
66373;SHT30;53168;51.146;17.120;2024-02-15T02:19:54;8.97;75.15
66373;SHT30;53168;51.146;17.120;2024-02-15T02:22:29;8.97;75.20
66373;SHT30;53168;51.146;17.120;2024-02-15T02:25:07;8.97;75.20
66373;SHT30;53168;51.146;17.120;2024-02-15T02:27:44;8.99;75.20
66373;SHT30;53168;51.146;17.120;2024-02-15T02:30:19;8.99;75.20
66373;SHT30;53168;51.146;17.120;2024-02-15T02:32:54;8.98;75.25
66373;SHT30;53168;51.146;17.120;2024-02-15T02:35:32;8.95;75.30
66373;SHT30;53168;51.146;17.120;2024-02-15T02:38:06;8.95;75.33
66373;SHT30;53168;51.146;17.120;2024-02-15T02:40:41;8.94;75.37
66373;SHT30;53168;51.146;17.120;2024-02-15T02:43:16;8.93;75.40
66373;SHT30;53168;51.146;17.120;2024-02-15T02:45:50;8.93;75.45
66373;SHT30;53168;51.146;17.120;2024-02-15T02:48:25;8.91;75.49
66373;SHT30;53168;51.146;17.120;2024-02-15T02:51:00;8.90;75.50
66373;SHT30;53168;51.146;17.120;2024-02-15T02:53:35;8.88;75.56
66373;SHT30;53168;51.146;17.120;2024-02-15T02:56:10;8.87;75.61
66373;SHT30;53168;51.146;17.120;2024-02-15T02:58:44;8.88;75.62
66373;SHT30;53168;51.146;17.120;2024-02-15T03:01:19;8.91;75.60
66373;SHT30;53168;51.146;17.120;2024-02-15T03:03:56;8.91;75.66
66373;SHT30;53168;51.146;17.120;2024-02-15T03:06:30;8.91;75.70
66373;SHT30;53168;51.146;17.120;2024-02-15T03:09:05;8.91;75.70
66373;SHT30;53168;51.146;17.120;2024-02-15T03:11:40;8.91;75.78
66373;SHT30;53168;51.146;17.120;2024-02-15T03:14:15;8.92;75.80
66373;SHT30;53168;51.146;17.120;2024-02-15T03:16:50;8.94;75.80
66373;SHT30;53168;51.146;17.120;2024-02-15T03:19:26;8.93;75.80
66373;SHT30;53168;51.146;17.120;2024-02-15T03:22:02;8.95;75.87
66373;SHT30;53168;51.146;17.120;2024-02-15T03:24:37;8.94;75.90
66373;SHT30;53168;51.146;17.120;2024-02-15T03:27:11;8.96;75.89
66373;SHT30;53168;51.146;17.120;2024-02-15T03:29:46;8.96;75.90
66373;SHT30;53168;51.146;17.120;2024-02-15T03:32:20;8.95;75.93
66373;SHT30;53168;51.146;17.120;2024-02-15T03:34:54;8.98;75.91
66373;SHT30;53168;51.146;17.120;2024-02-15T03:37:28;8.97;75.93
66373;SHT30;53168;51.146;17.120;2024-02-15T03:40:06;9.00;75.91
66373;SHT30;53168;51.146;17.120;2024-02-15T03:42:42;9.01;75.92
66373;SHT30;53168;51.146;17.120;2024-02-15T03:45:17;9.02;75.99
66373;SHT30;53168;51.146;17.120;2024-02-15T03:47:56;9.03;76.00
66373;SHT30;53168;51.146;17.120;2024-02-15T03:50:31;9.04;75.96
66373;SHT30;53168;51.146;17.120;2024-02-15T03:53:06;9.06;76.00
66373;SHT30;53168;51.146;17.120;2024-02-15T03:55:42;9.08;75.97
66373;SHT30;53168;51.146;17.120;2024-02-15T03:58:16;9.12;75.92
66373;SHT30;53168;51.146;17.120;2024-02-15T04:00:51;9.14;75.94
66373;SHT30;53168;51.146;17.120;2024-02-15T04:03:27;9.17;75.90
66373;SHT30;53168;51.146;17.120;2024-02-15T04:06:03;9.18;75.91
66373;SHT30;53168;51.146;17.120;2024-02-15T04:08:38;9.18;75.90
66373;SHT30;53168;51.146;17.120;2024-02-15T04:11:13;9.19;75.90
66373;SHT30;53168;51.146;17.120;2024-02-15T04:13:47;9.21;75.90
66373;SHT30;53168;51.146;17.120;2024-02-15T04:16:21;9.20;75.91
66373;SHT30;53168;51.146;17.120;2024-02-15T04:18:56;9.20;75.91
66373;SHT30;53168;51.146;17.120;2024-02-15T04:21:31;9.23;75.90
66373;SHT30;53168;51.146;17.120;2024-02-15T04:24:06;9.24;75.90
66373;SHT30;53168;51.146;17.120;2024-02-15T04:26:41;9.24;75.90
66373;SHT30;53168;51.146;17.120;2024-02-15T04:29:19;9.21;75.94
66373;SHT30;53168;51.146;17.120;2024-02-15T04:31:53;9.20;76.00
66373;SHT30;53168;51.146;17.120;2024-02-15T04:34:27;9.19;75.99
66373;SHT30;53168;51.146;17.120;2024-02-15T04:37:05;9.20;76.00
66373;SHT30;53168;51.146;17.120;2024-02-15T04:39:40;9.20;76.00
66373;SHT30;53168;51.146;17.120;2024-02-15T04:42:14;9.18;76.00
66373;SHT30;53168;51.146;17.120;2024-02-15T04:44:49;9.18;76.08
66373;SHT30;53168;51.146;17.120;2024-02-15T04:49:28;9.17;76.10
66373;SHT30;53168;51.146;17.120;2024-02-15T04:52:03;9.18;76.10
66373;SHT30;53168;51.146;17.120;2024-02-15T04:54:38;9.16;76.16
66373;SHT30;53168;51.146;17.120;2024-02-15T04:57:13;9.15;76.20
66373;SHT30;53168;51.146;17.120;2024-02-15T04:59:49;9.15;76.20
66373;SHT30;53168;51.146;17.120;2024-02-15T05:02:23;9.15;76.20
66373;SHT30;53168;51.146;17.120;2024-02-15T05:04:58;9.12;76.28
66373;SHT30;53168;51.146;17.120;2024-02-15T05:07:32;9.11;76.31
66373;SHT30;53168;51.146;17.120;2024-02-15T05:10:09;9.08;76.40
66373;SHT30;53168;51.146;17.120;2024-02-15T05:12:44;9.05;76.46
66373;SHT30;53168;51.146;17.120;2024-02-15T05:15:20;9.02;76.50
66373;SHT30;53168;51.146;17.120;2024-02-15T05:17:56;9.01;76.59
66373;SHT30;53168;51.146;17.120;2024-02-15T05:20:33;9.01;76.60
66373;SHT30;53168;51.146;17.120;2024-02-15T05:23:08;9.00;76.60
66373;SHT30;53168;51.146;17.120;2024-02-15T05:25:43;8.99;76.67
66373;SHT30;53168;51.146;17.120;2024-02-15T05:28:17;8.98;76.70
66373;SHT30;53168;51.146;17.120;2024-02-15T05:31:12;8.96;76.70
66373;SHT30;53168;51.146;17.120;2024-02-15T05:33:49;8.94;76.72
66373;SHT30;53168;51.146;17.120;2024-02-15T05:36:25;8.92;76.80
66373;SHT30;53168;51.146;17.120;2024-02-15T05:39:01;8.88;76.83
66373;SHT30;53168;51.146;17.120;2024-02-15T05:41:36;8.87;76.90
66373;SHT30;53168;51.146;17.120;2024-02-15T05:44:11;8.84;76.90
66373;SHT30;53168;51.146;17.120;2024-02-15T05:46:50;8.81;76.99
66373;SHT30;53168;51.146;17.120;2024-02-15T05:49:24;8.79;77.00
66373;SHT30;53168;51.146;17.120;2024-02-15T05:51:58;8.77;77.04
66373;SHT30;53168;51.146;17.120;2024-02-15T05:54:33;8.75;77.10
66373;SHT30;53168;51.146;17.120;2024-02-15T05:57:08;8.73;77.10
66373;SHT30;53168;51.146;17.120;2024-02-15T05:59:43;8.70;77.16
66373;SHT30;53168;51.146;17.120;2024-02-15T06:02:17;8.71;77.19
66373;SHT30;53168;51.146;17.120;2024-02-15T06:04:52;8.71;77.20
66373;SHT30;53168;51.146;17.120;2024-02-15T06:07:34;8.71;77.20
66373;SHT30;53168;51.146;17.120;2024-02-15T06:10:10;8.71;77.21
66373;SHT30;53168;51.146;17.120;2024-02-15T06:12:46;8.73;77.23
66373;SHT30;53168;51.146;17.120;2024-02-15T06:15:20;8.75;77.29
66373;SHT30;53168;51.146;17.120;2024-02-15T06:17:55;8.77;77.25
66373;SHT30;53168;51.146;17.120;2024-02-15T06:20:30;8.79;77.27
66373;SHT30;53168;51.146;17.120;2024-02-15T06:23:07;8.82;77.21
66373;SHT30;53168;51.146;17.120;2024-02-15T06:25:42;8.84;77.20
66373;SHT30;53168;51.146;17.120;2024-02-15T06:28:18;8.86;77.22
66373;SHT30;53168;51.146;17.120;2024-02-15T06:31:07;8.90;77.23
66373;SHT30;53168;51.146;17.120;2024-02-15T06:34:00;8.97;77.21
66373;SHT30;53168;51.146;17.120;2024-02-15T06:36:55;9.01;77.19
66373;SHT30;53168;51.146;17.120;2024-02-15T06:39:47;9.07;77.20
66373;SHT30;53168;51.146;17.120;2024-02-15T06:42:23;9.09;77.11
66373;SHT30;53168;51.146;17.120;2024-02-15T06:44:57;9.13;77.11
66373;SHT30;53168;51.146;17.120;2024-02-15T06:47:32;9.15;77.09
66373;SHT30;53168;51.146;17.120;2024-02-15T06:50:08;9.17;77.06
66373;SHT30;53168;51.146;17.120;2024-02-15T06:52:43;9.19;77.02
66373;SHT30;53168;51.146;17.120;2024-02-15T06:55:22;9.19;77.00
66373;SHT30;53168;51.146;17.120;2024-02-15T06:57:56;9.18;76.99
66373;SHT30;53168;51.146;17.120;2024-02-15T07:00:30;9.20;77.00
66373;SHT30;53168;51.146;17.120;2024-02-15T07:03:05;9.23;76.94
66373;SHT30;53168;51.146;17.120;2024-02-15T07:05:40;9.26;76.92
66373;SHT30;53168;51.146;17.120;2024-02-15T07:08:15;9.29;76.89
66373;SHT30;53168;51.146;17.120;2024-02-15T07:10:49;9.33;76.85
66373;SHT30;53168;51.146;17.120;2024-02-15T07:13:24;9.36;76.86
66373;SHT30;53168;51.146;17.120;2024-02-15T07:15:59;9.42;76.80
66373;SHT30;53168;51.146;17.120;2024-02-15T07:18:35;9.46;76.71
66373;SHT30;53168;51.146;17.120;2024-02-15T07:21:10;9.52;76.70
66373;SHT30;53168;51.146;17.120;2024-02-15T07:23:48;9.59;76.66
66373;SHT30;53168;51.146;17.120;2024-02-15T07:26:23;9.64;76.60
66373;SHT30;53168;51.146;17.120;2024-02-15T07:28:58;9.70;76.55
66373;SHT30;53168;51.146;17.120;2024-02-15T07:31:34;9.76;76.49
66373;SHT30;53168;51.146;17.120;2024-02-15T07:34:08;9.82;76.40
66373;SHT30;53168;51.146;17.120;2024-02-15T07:36:43;9.89;76.37
66373;SHT30;53168;51.146;17.120;2024-02-15T07:39:18;9.95;76.27
66373;SHT30;53168;51.146;17.120;2024-02-15T07:41:56;10.00;76.20
66373;SHT30;53168;51.146;17.120;2024-02-15T07:44:30;10.06;76.15
66373;SHT30;53168;51.146;17.120;2024-02-15T07:47:08;10.09;76.10
66373;SHT30;53168;51.146;17.120;2024-02-15T07:49:43;10.14;76.05
66373;SHT30;53168;51.146;17.120;2024-02-15T07:52:20;10.16;75.95
66373;SHT30;53168;51.146;17.120;2024-02-15T07:54:54;10.19;75.90
66373;SHT30;53168;51.146;17.120;2024-02-15T07:57:28;10.22;75.82
66373;SHT30;53168;51.146;17.120;2024-02-15T08:00:03;10.23;75.78
66373;SHT30;53168;51.146;17.120;2024-02-15T08:02:42;10.27;75.77
66373;SHT30;53168;51.146;17.120;2024-02-15T08:05:20;10.28;75.68
66373;SHT30;53168;51.146;17.120;2024-02-15T08:07:54;10.30;75.70
66373;SHT30;53168;51.146;17.120;2024-02-15T08:10:29;10.31;75.63
66373;SHT30;53168;51.146;17.120;2024-02-15T08:13:05;10.34;75.59
66373;SHT30;53168;51.146;17.120;2024-02-15T08:15:40;10.40;75.53
66373;SHT30;53168;51.146;17.120;2024-02-15T08:18:16;10.46;75.44
66373;SHT30;53168;51.146;17.120;2024-02-15T08:20:52;10.50;75.35
66373;SHT30;53168;51.146;17.120;2024-02-15T08:23:28;10.55;75.37
66373;SHT30;53168;51.146;17.120;2024-02-15T08:26:05;10.59;75.27
66373;SHT30;53168;51.146;17.120;2024-02-15T08:28:42;10.67;75.23
66373;SHT30;53168;51.146;17.120;2024-02-15T08:31:21;10.75;75.15
66373;SHT30;53168;51.146;17.120;2024-02-15T08:33:56;10.82;75.06
66373;SHT30;53168;51.146;17.120;2024-02-15T08:36:32;10.87;74.98
66373;SHT30;53168;51.146;17.120;2024-02-15T08:39:06;10.94;74.90
66373;SHT30;53168;51.146;17.120;2024-02-15T08:41:46;11.02;74.80
66373;SHT30;53168;51.146;17.120;2024-02-15T08:44:29;11.06;74.70
66373;SHT30;53168;51.146;17.120;2024-02-15T08:47:05;11.10;74.69
66373;SHT30;53168;51.146;17.120;2024-02-15T08:49:39;11.14;74.56
66373;SHT30;53168;51.146;17.120;2024-02-15T08:52:14;11.14;74.50
66373;SHT30;53168;51.146;17.120;2024-02-15T08:54:49;11.15;74.40
66373;SHT30;53168;51.146;17.120;2024-02-15T08:57:24;11.16;74.37
66373;SHT30;53168;51.146;17.120;2024-02-15T08:59:59;11.17;74.33
66373;SHT30;53168;51.146;17.120;2024-02-15T09:02:36;11.23;74.30
66373;SHT30;53168;51.146;17.120;2024-02-15T09:05:11;11.32;74.18
66373;SHT30;53168;51.146;17.120;2024-02-15T09:07:47;11.41;73.99
66373;SHT30;53168;51.146;17.120;2024-02-15T09:10:22;11.54;73.97
66373;SHT30;53168;51.146;17.120;2024-02-15T09:12:57;11.65;73.77
66373;SHT30;53168;51.146;17.120;2024-02-15T09:15:32;11.75;73.74
66373;SHT30;53168;51.146;17.120;2024-02-15T09:18:07;11.87;73.59
66373;SHT30;53168;51.146;17.120;2024-02-15T09:20:42;12.01;73.52
66373;SHT30;53168;51.146;17.120;2024-02-15T09:23:17;12.10;73.32
66373;SHT30;53168;51.146;17.120;2024-02-15T09:25:55;12.19;73.24
66373;SHT30;53168;51.146;17.120;2024-02-15T09:28:32;12.20;72.98
66373;SHT30;53168;51.146;17.120;2024-02-15T09:31:11;12.26;73.09
66373;SHT30;53168;51.146;17.120;2024-02-15T09:33:54;12.35;72.91
66373;SHT30;53168;51.146;17.120;2024-02-15T09:40:10;12.44;72.68
66373;SHT30;53168;51.146;17.120;2024-02-15T09:42:49;12.47;72.63
66373;SHT30;53168;51.146;17.120;2024-02-15T09:45:28;12.46;72.51
66373;SHT30;53168;51.146;17.120;2024-02-15T09:48:08;12.49;72.58
66373;SHT30;53168;51.146;17.120;2024-02-15T09:50:46;12.55;72.52
66373;SHT30;53168;51.146;17.120;2024-02-15T09:53:28;12.54;72.35
66373;SHT30;53168;51.146;17.120;2024-02-15T09:56:05;12.55;72.30
66373;SHT30;53168;51.146;17.120;2024-02-15T09:58:42;12.56;72.18
66373;SHT30;53168;51.146;17.120;2024-02-15T10:01:22;12.56;72.14
66373;SHT30;53168;51.146;17.120;2024-02-15T10:03:59;12.59;72.03
66373;SHT30;53168;51.146;17.120;2024-02-15T10:06:38;12.60;71.89
66373;SHT30;53168;51.146;17.120;2024-02-15T10:09:38;12.60;71.92
66373;SHT30;53168;51.146;17.120;2024-02-15T10:12:15;12.60;71.77
66373;SHT30;53168;51.146;17.120;2024-02-15T10:14:56;12.65;71.77
66373;SHT30;53168;51.146;17.120;2024-02-15T10:19:27;12.84;71.53
66373;SHT30;53168;51.146;17.120;2024-02-15T10:22:09;12.97;71.42
66373;SHT30;53168;51.146;17.120;2024-02-15T10:24:45;13.11;71.21
66373;SHT30;53168;51.146;17.120;2024-02-15T10:27:24;13.27;71.10
66373;SHT30;53168;51.146;17.120;2024-02-15T10:30:16;13.47;70.87
66373;SHT30;53168;51.146;17.120;2024-02-15T10:32:53;13.57;70.53
66373;SHT30;53168;51.146;17.120;2024-02-15T10:35:31;13.65;70.46
66373;SHT30;53168;51.146;17.120;2024-02-15T10:38:10;13.72;70.36
66373;SHT30;53168;51.146;17.120;2024-02-15T10:40:50;13.72;69.96
66373;SHT30;53168;51.146;17.120;2024-02-15T10:43:38;13.73;70.17
66373;SHT30;53168;51.146;17.120;2024-02-15T10:46:19;13.82;70.12
66373;SHT30;53168;51.146;17.120;2024-02-15T10:48:53;13.87;69.56
66373;SHT30;53168;51.146;17.120;2024-02-15T10:51:29;13.88;69.54
66373;SHT30;53168;51.146;17.120;2024-02-15T10:54:11;13.88;69.31
66373;SHT30;53168;51.146;17.120;2024-02-15T10:56:55;13.93;69.55
66373;SHT30;53168;51.146;17.120;2024-02-15T10:59:47;14.03;69.37
66373;SHT30;53168;51.146;17.120;2024-02-15T11:02:32;14.11;69.37
66373;SHT30;53168;51.146;17.120;2024-02-15T11:05:13;14.16;68.91
66373;SHT30;53168;51.146;17.120;2024-02-15T11:07:54;14.09;68.85
66373;SHT30;53168;51.146;17.120;2024-02-15T11:10:29;14.07;69.06
66373;SHT30;53168;51.146;17.120;2024-02-15T11:13:05;14.06;68.87
66373;SHT30;53168;51.146;17.120;2024-02-15T11:15:47;14.07;68.81
66373;SHT30;53168;51.146;17.120;2024-02-15T11:30:09;14.78;68.05
66373;SHT30;53168;51.146;17.120;2024-02-15T11:33:27;14.63;68.34
66373;SHT30;53168;51.146;17.120;2024-02-15T11:36:11;14.48;68.24
66373;SHT30;53168;51.146;17.120;2024-02-15T11:38:57;14.30;68.42
66373;SHT30;53168;51.146;17.120;2024-02-15T11:41:34;14.23;68.62
66373;SHT30;53168;51.146;17.120;2024-02-15T11:44:08;14.20;68.62
66373;SHT30;53168;51.146;17.120;2024-02-15T11:46:54;14.18;68.94
66373;SHT30;53168;51.146;17.120;2024-02-15T11:49:31;14.17;68.96
66373;SHT30;53168;51.146;17.120;2024-02-15T11:52:12;14.16;69.03
66373;SHT30;53168;51.146;17.120;2024-02-15T11:54:49;14.19;69.16
66373;SHT30;53168;51.146;17.120;2024-02-15T11:57:24;14.22;69.22
66373;SHT30;53168;51.146;17.120;2024-02-15T12:00:09;14.25;69.30
66373;SHT30;53168;51.146;17.120;2024-02-15T12:03:05;14.27;69.27
66373;SHT30;53168;51.146;17.120;2024-02-15T12:05:59;14.33;69.20
66373;SHT30;53168;51.146;17.120;2024-02-15T12:08:54;14.44;69.26
66373;SHT30;53168;51.146;17.120;2024-02-15T12:11:46;14.64;69.17
66373;SHT30;53168;51.146;17.120;2024-02-15T12:14:48;14.82;68.96
66373;SHT30;53168;51.146;17.120;2024-02-15T12:17:40;14.95;68.88
66373;SHT30;53168;51.146;17.120;2024-02-15T12:20:32;15.04;68.84
66373;SHT30;53168;51.146;17.120;2024-02-15T12:23:07;15.08;68.67
66373;SHT30;53168;51.146;17.120;2024-02-15T12:25:42;15.06;68.70
66373;SHT30;53168;51.146;17.120;2024-02-15T12:28:23;14.95;68.56
66373;SHT30;53168;51.146;17.120;2024-02-15T12:30:58;14.80;68.80
66373;SHT30;53168;51.146;17.120;2024-02-15T12:33:36;14.65;68.94
66373;SHT30;53168;51.146;17.120;2024-02-15T12:36:11;14.60;69.14
66373;SHT30;53168;51.146;17.120;2024-02-15T12:39:00;14.52;69.20
66373;SHT30;53168;51.146;17.120;2024-02-15T12:41:48;14.45;69.26
66373;SHT30;53168;51.146;17.120;2024-02-15T12:44:29;14.36;69.46
66373;SHT30;53168;51.146;17.120;2024-02-15T12:47:06;14.32;69.68
66373;SHT30;53168;51.146;17.120;2024-02-15T12:49:41;14.34;69.59
66373;SHT30;53168;51.146;17.120;2024-02-15T12:52:41;14.35;69.64
66373;SHT30;53168;51.146;17.120;2024-02-15T12:55:22;14.42;69.68
66373;SHT30;53168;51.146;17.120;2024-02-15T12:57:57;14.45;69.58
66373;SHT30;53168;51.146;17.120;2024-02-15T13:00:36;14.42;69.59
66373;SHT30;53168;51.146;17.120;2024-02-15T13:03:13;14.44;69.65
66373;SHT30;53168;51.146;17.120;2024-02-15T13:05:49;14.62;69.68
66373;SHT30;53168;51.146;17.120;2024-02-15T13:08:24;14.84;69.40
66373;SHT30;53168;51.146;17.120;2024-02-15T13:10:58;15.01;69.28
66373;SHT30;53168;51.146;17.120;2024-02-15T13:13:34;15.09;69.05
66373;SHT30;53168;51.146;17.120;2024-02-15T13:16:09;15.14;68.86
66373;SHT30;53168;51.146;17.120;2024-02-15T13:18:46;15.17;68.81
66373;SHT30;53168;51.146;17.120;2024-02-15T13:21:23;15.25;68.78
66373;SHT30;53168;51.146;17.120;2024-02-15T13:24:02;15.35;68.64
66373;SHT30;53168;51.146;17.120;2024-02-15T13:26:37;15.36;68.18
66373;SHT30;53168;51.146;17.120;2024-02-15T13:35:09;15.09;68.35
66373;SHT30;53168;51.146;17.120;2024-02-15T13:37:48;15.08;68.47
66373;SHT30;53168;51.146;17.120;2024-02-15T13:40:25;15.16;68.59
66373;SHT30;53168;51.146;17.120;2024-02-15T13:43:03;15.27;68.49
66373;SHT30;53168;51.146;17.120;2024-02-15T13:45:40;15.39;68.42
66373;SHT30;53168;51.146;17.120;2024-02-15T13:48:15;15.49;68.12
66373;SHT30;53168;51.146;17.120;2024-02-15T13:50:52;15.51;67.66
66373;SHT30;53168;51.146;17.120;2024-02-15T13:53:27;15.59;67.70
66373;SHT30;53168;51.146;17.120;2024-02-15T13:56:01;15.77;67.60
66373;SHT30;53168;51.146;17.120;2024-02-15T13:58:36;16.00;66.89
66373;SHT30;53168;51.146;17.120;2024-02-15T14:01:11;16.33;66.13
66373;SHT30;53168;51.146;17.120;2024-02-15T14:03:46;16.54;65.84
66373;SHT30;53168;51.146;17.120;2024-02-15T14:06:20;16.75;65.49
66373;SHT30;53168;51.146;17.120;2024-02-15T14:09:04;16.62;65.29
66373;SHT30;53168;51.146;17.120;2024-02-15T14:11:39;16.44;65.47
66373;SHT30;53168;51.146;17.120;2024-02-15T14:14:14;16.44;65.51
66373;SHT30;53168;51.146;17.120;2024-02-15T14:16:49;16.59;65.16
66373;SHT30;53168;51.146;17.120;2024-02-15T14:19:24;16.84;65.00
66373;SHT30;53168;51.146;17.120;2024-02-15T14:22:01;16.99;64.75
66373;SHT30;53168;51.146;17.120;2024-02-15T14:24:40;17.12;64.34
66373;SHT30;53168;51.146;17.120;2024-02-15T14:27:15;17.36;63.58
66373;SHT30;53168;51.146;17.120;2024-02-15T14:29:51;17.24;63.77
66373;SHT30;53168;51.146;17.120;2024-02-15T14:32:54;17.19;63.73
66373;SHT30;53168;51.146;17.120;2024-02-15T14:35:41;17.86;63.24
66373;SHT30;53168;51.146;17.120;2024-02-15T14:38:16;18.84;62.45
66373;SHT30;53168;51.146;17.120;2024-02-15T14:40:52;19.60;61.80
66373;SHT30;53168;51.146;17.120;2024-02-15T14:43:29;19.69;61.38
66373;SHT30;53168;51.146;17.120;2024-02-15T14:46:04;19.53;61.36
66373;SHT30;53168;51.146;17.120;2024-02-15T14:48:41;19.25;61.49
66373;SHT30;53168;51.146;17.120;2024-02-15T14:51:19;18.74;61.74
66373;SHT30;53168;51.146;17.120;2024-02-15T14:54:12;18.03;62.36
66373;SHT30;53168;51.146;17.120;2024-02-15T14:56:54;17.47;62.86
66373;SHT30;53168;51.146;17.120;2024-02-15T14:59:29;17.00;63.18
66373;SHT30;53168;51.146;17.120;2024-02-15T15:02:06;16.63;63.56
66373;SHT30;53168;51.146;17.120;2024-02-15T15:04:43;16.32;63.84
66373;SHT30;53168;51.146;17.120;2024-02-15T15:07:42;15.96;64.02
66373;SHT30;53168;51.146;17.120;2024-02-15T15:10:49;15.58;64.29
66373;SHT30;53168;51.146;17.120;2024-02-15T15:13:41;15.29;64.67
66373;SHT30;53168;51.146;17.120;2024-02-15T15:16:16;15.07;64.93
66373;SHT30;53168;51.146;17.120;2024-02-15T15:18:52;14.90;65.12
66373;SHT30;53168;51.146;17.120;2024-02-15T15:21:28;14.75;65.27
66373;SHT30;53168;51.146;17.120;2024-02-15T15:24:04;14.63;65.51
66373;SHT30;53168;51.146;17.120;2024-02-15T15:26:41;14.52;65.69
66373;SHT30;53168;51.146;17.120;2024-02-15T15:29:16;14.43;65.83
66373;SHT30;53168;51.146;17.120;2024-02-15T15:31:51;14.34;66.03
66373;SHT30;53168;51.146;17.120;2024-02-15T15:34:25;14.26;66.17
66373;SHT30;53168;51.146;17.120;2024-02-15T15:37:01;14.20;66.33
66373;SHT30;53168;51.146;17.120;2024-02-15T15:39:38;14.11;66.47
66373;SHT30;53168;51.146;17.120;2024-02-15T15:42:12;14.02;66.56
66373;SHT30;53168;51.146;17.120;2024-02-15T15:44:47;13.94;66.65
66373;SHT30;53168;51.146;17.120;2024-02-15T15:47:24;13.87;66.76
66373;SHT30;53168;51.146;17.120;2024-02-15T15:49:59;13.82;66.87
66373;SHT30;53168;51.146;17.120;2024-02-15T15:52:33;13.77;66.97
66373;SHT30;53168;51.146;17.120;2024-02-15T15:55:10;13.72;67.08
66373;SHT30;53168;51.146;17.120;2024-02-15T15:57:44;13.65;67.20
66373;SHT30;53168;51.146;17.120;2024-02-15T16:00:21;13.59;67.32
66373;SHT30;53168;51.146;17.120;2024-02-15T16:02:56;13.55;67.45
66373;SHT30;53168;51.146;17.120;2024-02-15T16:05:36;13.51;67.56
66373;SHT30;53168;51.146;17.120;2024-02-15T16:08:10;13.47;67.62
66373;SHT30;53168;51.146;17.120;2024-02-15T16:10:45;13.43;67.73
66373;SHT30;53168;51.146;17.120;2024-02-15T16:13:24;13.39;67.82
66373;SHT30;53168;51.146;17.120;2024-02-15T16:15:59;13.35;67.90
66373;SHT30;53168;51.146;17.120;2024-02-15T16:18:35;13.33;67.98
66373;SHT30;53168;51.146;17.120;2024-02-15T16:21:15;13.29;68.10
66373;SHT30;53168;51.146;17.120;2024-02-15T16:23:50;13.25;68.23
66373;SHT30;53168;51.146;17.120;2024-02-15T16:26:28;13.21;68.32
66373;SHT30;53168;51.146;17.120;2024-02-15T16:29:03;13.17;68.41
66373;SHT30;53168;51.146;17.120;2024-02-15T16:31:37;13.13;68.50
66373;SHT30;53168;51.146;17.120;2024-02-15T16:34:14;13.09;68.62
66373;SHT30;53168;51.146;17.120;2024-02-15T16:36:52;13.02;68.72
66373;SHT30;53168;51.146;17.120;2024-02-15T16:39:26;12.96;68.85
66373;SHT30;53168;51.146;17.120;2024-02-15T16:42:01;12.90;68.95
66373;SHT30;53168;51.146;17.120;2024-02-15T16:44:36;12.83;69.09
66373;SHT30;53168;51.146;17.120;2024-02-15T16:47:11;12.75;69.22
66373;SHT30;53168;51.146;17.120;2024-02-15T16:49:49;12.65;69.37
66373;SHT30;53168;51.146;17.120;2024-02-15T16:52:24;12.56;69.55
66373;SHT30;53168;51.146;17.120;2024-02-15T16:54:59;12.47;69.78
66373;SHT30;53168;51.146;17.120;2024-02-15T16:57:34;12.39;69.93
66373;SHT30;53168;51.146;17.120;2024-02-15T17:00:12;12.32;70.08
66373;SHT30;53168;51.146;17.120;2024-02-15T17:02:49;12.25;70.32